createdAt,value
2022-10-30T00:00:11.874Z,99083.48
2022-10-30T00:03:05.758Z,99092.33
2022-10-30T00:05:41.613Z,99096.25
2022-10-30T00:08:15.674Z,99103.85
2022-10-30T00:10:50.508Z,99112.33
2022-10-30T00:13:23.361Z,99119.05
2022-10-30T00:15:57.411Z,99118.36
2022-10-30T00:18:30.505Z,99114.30
2022-10-30T00:21:07.827Z,99114.30
2022-10-30T00:23:41.016Z,99107.75
2022-10-30T00:26:15.241Z,99096.61
2022-10-30T00:28:50.732Z,99096.46
2022-10-30T00:31:25.882Z,99099.50
2022-10-30T00:33:59.038Z,99107.03
2022-10-30T00:36:33.331Z,99104.77
2022-10-30T00:39:06.527Z,99109.34
2022-10-30T00:41:41.848Z,99106.08
2022-10-30T00:44:40.505Z,99103.23
2022-10-30T00:47:18.136Z,99102.34
2022-10-30T00:49:55.392Z,99105.70
2022-10-30T00:52:29.658Z,99100.96
2022-10-30T00:55:04.131Z,99099.27
2022-10-30T00:57:36.911Z,99092.98
2022-10-30T01:00:14.083Z,99092.59
2022-10-30T01:02:47.781Z,99089.41
2022-10-30T01:05:21.868Z,99092.58
2022-10-30T01:07:53.993Z,99095.56
2022-10-30T01:10:28.044Z,99091.70
2022-10-30T01:13:05.933Z,99083.40
2022-10-30T01:15:41.855Z,99077.27
2022-10-30T01:18:24.386Z,99078.73
2022-10-30T01:21:16.552Z,99080.90
2022-10-30T01:24:02.365Z,99086.02
2022-10-30T01:26:43.490Z,99085.16
2022-10-30T01:29:28.254Z,99087.63
2022-10-30T01:32:15.010Z,99086.78
2022-10-30T01:34:51.613Z,99085.90
2022-10-30T01:37:29.996Z,99088.03
2022-10-30T01:40:07.952Z,99093.85
2022-10-30T01:42:56.798Z,99096.13
2022-10-30T01:45:46.990Z,99093.66
2022-10-30T01:48:34.496Z,99095.77
2022-10-30T01:51:13.214Z,99088.54
2022-10-30T01:53:54.324Z,99082.03
2022-10-30T01:56:33.609Z,99076.77
2022-10-30T01:59:13.423Z,99081.02
2022-10-30T02:01:48.088Z,99093.05
2022-10-30T02:04:20.710Z,99096.05
2022-10-30T02:06:53.757Z,99098.00
2022-10-30T02:09:26.702Z,99096.96
2022-10-30T02:12:01.215Z,99090.27
2022-10-30T02:14:36.113Z,99091.70
2022-10-30T02:17:10.073Z,99086.77
2022-10-30T02:19:42.886Z,99094.36
2022-10-30T02:22:16.886Z,99091.73
2022-10-30T02:24:50.414Z,99088.02
2022-10-30T02:27:26.955Z,99087.50
2022-10-30T02:30:01.448Z,99080.97
2022-10-30T02:32:35.880Z,99074.96
2022-10-30T02:35:11.266Z,99071.41
2022-10-30T02:37:43.190Z,99068.39
2022-10-30T02:40:17.295Z,99069.27
2022-10-30T02:42:55.004Z,99068.91
2022-10-30T02:45:27.444Z,99068.55
2022-10-30T02:48:06.133Z,99066.77
2022-10-30T02:50:40.841Z,99064.44
2022-10-30T02:53:12.654Z,99070.40
2022-10-30T02:55:45.375Z,99071.27
2022-10-30T02:58:19.887Z,99067.14
2022-10-30T03:00:51.791Z,99069.75
2022-10-30T03:03:24.266Z,99074.14
2022-10-30T03:05:57.279Z,99074.30
2022-10-30T03:08:30.383Z,99077.63
2022-10-30T03:11:07.785Z,99074.42
2022-10-30T03:13:42.754Z,99080.59
2022-10-30T03:16:16.864Z,99086.04
2022-10-30T03:18:52.116Z,99080.71
2022-10-30T03:21:26.247Z,99076.81
2022-10-30T03:23:59.350Z,99081.23
2022-10-30T03:26:33.303Z,99086.15
2022-10-30T03:29:05.529Z,99086.86
2022-10-30T03:31:38.465Z,99085.77
2022-10-30T03:34:12.603Z,99084.36
2022-10-30T03:36:45.406Z,99087.46
2022-10-30T03:39:18.631Z,99089.77
2022-10-30T03:41:53.790Z,99087.45
2022-10-30T03:44:27.564Z,99095.58
2022-10-30T03:47:00.422Z,99088.23
2022-10-30T03:49:34.060Z,99085.05
2022-10-30T03:52:07.462Z,99081.90
2022-10-30T03:54:41.986Z,99073.02
2022-10-30T03:57:14.661Z,99074.09
2022-10-30T03:59:48.069Z,99073.23
2022-10-30T04:04:59.540Z,99073.92
2022-10-30T04:07:34.059Z,99065.96
2022-10-30T04:10:09.981Z,99064.50
2022-10-30T04:12:44.145Z,99062.71
2022-10-30T04:15:16.472Z,99062.70
2022-10-30T04:17:53.119Z,99061.55
2022-10-30T04:20:29.077Z,99052.70
2022-10-30T04:23:02.935Z,99057.59
2022-10-30T04:25:37.753Z,99066.25
2022-10-30T04:28:10.001Z,99074.71
2022-10-30T04:30:44.703Z,99082.66
2022-10-30T04:33:17.712Z,99090.63
2022-10-30T04:35:50.265Z,99094.00
2022-10-30T04:38:23.035Z,99092.54
2022-10-30T04:40:56.000Z,99089.67
2022-10-30T04:43:29.234Z,99086.54
2022-10-30T04:46:05.470Z,99088.32
2022-10-30T04:48:37.725Z,99090.98
2022-10-30T04:51:11.887Z,99088.73
2022-10-30T04:53:48.542Z,99089.89
2022-10-30T04:56:21.762Z,99086.33
2022-10-30T04:58:57.999Z,99084.05
2022-10-30T05:01:34.014Z,99082.08
2022-10-30T05:04:09.936Z,99079.34
2022-10-30T05:06:42.392Z,99081.79
2022-10-30T05:09:16.169Z,99081.95
2022-10-30T05:11:57.443Z,99081.42
2022-10-30T05:14:34.998Z,99080.55
2022-10-30T05:17:07.441Z,99080.04
2022-10-30T05:19:41.219Z,99078.27
2022-10-30T05:22:15.053Z,99075.81
2022-10-30T05:24:48.336Z,99076.55
2022-10-30T05:27:20.347Z,99076.69
2022-10-30T05:29:53.123Z,99075.59
2022-10-30T05:32:25.649Z,99077.35
2022-10-30T05:35:01.107Z,99073.98
2022-10-30T05:37:34.467Z,99069.60
2022-10-30T05:40:09.258Z,99069.80
2022-10-30T05:42:41.159Z,99068.95
2022-10-30T05:45:15.499Z,99070.29
2022-10-30T05:47:50.551Z,99074.39
2022-10-30T05:50:22.788Z,99079.61
2022-10-30T05:52:59.749Z,99085.67
2022-10-30T05:55:33.404Z,99089.89
2022-10-30T05:58:08.945Z,99094.21
2022-10-30T06:00:43.077Z,99095.90
2022-10-30T06:03:17.064Z,99097.66
2022-10-30T06:05:52.029Z,99098.89
2022-10-30T06:08:23.804Z,99098.88
2022-10-30T06:10:58.697Z,99092.14
2022-10-30T06:13:33.124Z,99095.65
2022-10-30T06:16:08.818Z,99095.81
2022-10-30T06:18:40.596Z,99096.07
2022-10-30T06:21:13.685Z,99095.58
2022-10-30T06:23:51.810Z,99089.25
2022-10-30T06:26:26.243Z,99092.38
2022-10-30T06:29:01.405Z,99096.55
2022-10-30T06:31:35.089Z,99102.41
2022-10-30T06:34:07.722Z,99100.07
2022-10-30T06:36:41.005Z,99097.92
2022-10-30T06:39:13.215Z,99097.16
2022-10-30T06:41:46.852Z,99097.30
2022-10-30T06:44:20.827Z,99096.91
2022-10-30T06:46:57.491Z,99093.38
2022-10-30T06:49:32.064Z,99100.08
2022-10-30T06:52:05.759Z,99104.27
2022-10-30T06:54:39.430Z,99104.79
2022-10-30T06:57:17.738Z,99108.67
2022-10-30T06:59:49.693Z,99108.29
2022-10-30T07:02:25.855Z,99108.92
2022-10-30T07:04:58.474Z,99102.85
2022-10-30T07:07:31.317Z,99102.27
2022-10-30T07:10:06.314Z,99103.30
2022-10-30T07:12:38.759Z,99103.45
2022-10-30T07:15:14.745Z,99103.55
2022-10-30T07:17:55.978Z,99108.80
2022-10-30T07:20:29.843Z,99111.16
2022-10-30T07:23:07.658Z,99112.84
2022-10-30T07:25:40.214Z,99117.55
2022-10-30T07:28:12.127Z,99119.30
2022-10-30T07:30:44.889Z,99120.73
2022-10-30T07:33:19.736Z,99118.08
2022-10-30T07:35:56.547Z,99120.41
2022-10-30T07:38:30.211Z,99116.38
2022-10-30T07:41:03.921Z,99112.83
2022-10-30T07:43:38.012Z,99110.23
2022-10-30T07:46:09.895Z,99107.08
2022-10-30T07:48:47.532Z,99107.02
2022-10-30T07:51:21.426Z,99104.21
2022-10-30T07:53:56.036Z,99105.48
2022-10-30T07:56:56.305Z,99107.58
2022-10-30T07:59:30.910Z,99105.43
2022-10-30T08:02:39.104Z,99104.79
2022-10-30T08:05:48.282Z,99108.14
2022-10-30T08:08:47.334Z,99107.61
2022-10-30T08:11:32.133Z,99107.40
2022-10-30T08:14:37.537Z,99106.57
2022-10-30T08:17:17.509Z,99109.02
2022-10-30T08:19:58.344Z,99106.81
2022-10-30T08:22:59.640Z,99101.39
2022-10-30T08:25:36.719Z,99102.17
2022-10-30T08:28:11.937Z,99095.13
2022-10-30T08:38:06.213Z,99085.95
2022-10-30T08:40:40.932Z,99081.98
2022-10-30T08:43:15.042Z,99080.65
2022-10-30T08:45:47.975Z,99076.60
2022-10-30T08:48:21.216Z,99071.95
2022-10-30T08:50:57.050Z,99067.30
2022-10-30T08:53:29.969Z,99065.27
2022-10-30T08:56:05.884Z,99062.63
2022-10-30T08:58:39.586Z,99065.52
2022-10-30T09:01:14.474Z,99062.08
2022-10-30T09:03:48.571Z,99058.80
2022-10-30T09:06:21.925Z,99059.84
2022-10-30T09:08:54.357Z,99059.21
2022-10-30T09:11:27.388Z,99059.19
2022-10-30T09:14:02.510Z,99056.84
2022-10-30T09:16:37.285Z,99053.11
2022-10-30T09:19:09.141Z,99054.41
2022-10-30T09:21:42.974Z,99050.80
2022-10-30T09:24:16.825Z,99051.33
2022-10-30T09:26:53.537Z,99049.73
2022-10-30T09:29:56.557Z,99044.21
2022-10-30T09:33:22.425Z,99043.95
2022-10-30T09:36:23.729Z,99046.65
2022-10-30T09:39:01.088Z,99047.75
2022-10-30T09:42:47.503Z,99048.00
2022-10-30T09:45:30.914Z,99044.78
2022-10-30T09:48:20.731Z,99048.68
2022-10-30T09:50:59.497Z,99049.55
2022-10-30T09:53:35.369Z,99052.40
2022-10-30T09:56:11.552Z,99049.11
2022-10-30T09:58:49.712Z,99047.45
2022-10-30T10:01:27.666Z,99047.25
2022-10-30T10:04:07.213Z,99045.66
2022-10-30T10:06:45.345Z,99034.92
2022-10-30T10:09:23.734Z,99037.43
2022-10-30T10:11:59.520Z,99035.95
2022-10-30T10:14:34.175Z,99035.33
2022-10-30T10:17:11.821Z,99032.80
2022-10-30T10:19:55.490Z,99032.23
2022-10-30T10:22:39.083Z,99029.73
2022-10-30T10:25:16.030Z,99030.16
2022-10-30T10:27:57.762Z,99034.11
2022-10-30T10:30:35.593Z,99033.69
2022-10-30T10:33:30.147Z,99033.56
2022-10-30T10:36:11.512Z,99024.76
2022-10-30T10:39:07.645Z,99020.45
2022-10-30T10:41:55.928Z,99011.20
2022-10-30T10:44:36.659Z,99006.27
2022-10-30T10:47:32.438Z,99004.61
2022-10-30T10:50:18.699Z,99002.98
2022-10-30T10:52:54.926Z,99000.57
2022-10-30T10:55:30.458Z,99005.52
2022-10-30T10:58:11.689Z,98999.50
2022-10-30T11:00:45.663Z,99000.17
2022-10-30T11:03:26.292Z,98988.95
2022-10-30T11:06:00.992Z,98989.80
2022-10-30T11:08:35.470Z,98984.01
2022-10-30T11:11:10.859Z,98983.15
2022-10-30T11:13:46.869Z,98978.44
2022-10-30T11:16:26.865Z,98977.48
2022-10-30T11:19:01.587Z,98974.77
2022-10-30T11:21:36.532Z,98979.02
2022-10-30T11:24:29.466Z,98983.66
2022-10-30T11:27:26.042Z,98982.98
2022-10-30T11:30:05.773Z,98982.34
2022-10-30T11:32:39.891Z,98986.88
2022-10-30T11:35:18.917Z,98990.46
2022-10-30T11:37:52.810Z,98989.98
2022-10-30T11:40:27.008Z,98991.76
2022-10-30T11:43:01.575Z,98983.39
2022-10-30T11:45:43.290Z,98984.73
2022-10-30T11:48:24.332Z,98987.23
2022-10-30T11:51:01.591Z,98986.99
2022-10-30T11:53:40.110Z,98983.64
2022-10-30T11:56:18.334Z,98981.26
2022-10-30T11:58:53.309Z,98978.86
2022-10-30T12:01:28.558Z,98967.77
2022-10-30T12:04:17.452Z,98967.95
2022-10-30T12:06:54.965Z,98964.66
2022-10-30T12:09:31.120Z,98963.50
2022-10-30T12:12:06.757Z,98962.45
2022-10-30T12:14:39.508Z,98962.11
2022-10-30T12:17:11.537Z,98956.04
2022-10-30T12:19:50.405Z,98951.59
2022-10-30T12:22:31.922Z,98951.46
2022-10-30T12:25:07.997Z,98952.64
2022-10-30T12:27:40.759Z,98955.70
2022-10-30T12:30:20.443Z,98953.12
2022-10-30T12:32:57.571Z,98951.14
2022-10-30T12:35:41.156Z,98952.84
2022-10-30T12:38:18.425Z,98951.41
2022-10-30T12:41:02.027Z,98940.95
2022-10-30T12:43:36.602Z,98940.98
2022-10-30T12:46:23.812Z,98936.66
2022-10-30T12:48:59.812Z,98934.55
2022-10-30T12:51:36.742Z,98933.84
2022-10-30T12:54:17.259Z,98928.40
2022-10-30T12:56:57.077Z,98925.16
2022-10-30T12:59:42.673Z,98923.40
2022-10-30T13:02:20.006Z,98921.89
2022-10-30T13:04:57.959Z,98920.09
2022-10-30T13:07:35.121Z,98916.68
2022-10-30T13:10:18.220Z,98915.30
2022-10-30T13:12:58.020Z,98911.45
2022-10-30T13:15:34.979Z,98916.55
2022-10-30T13:18:19.530Z,98917.02
2022-10-30T13:21:03.869Z,98918.20
2022-10-30T13:23:44.485Z,98920.23
2022-10-30T13:26:23.149Z,98918.56
2022-10-30T13:29:00.636Z,98918.06
2022-10-30T13:31:38.985Z,98919.12
2022-10-30T13:34:27.942Z,98919.70
2022-10-30T13:37:07.119Z,98918.09
2022-10-30T13:39:43.329Z,98917.13
2022-10-30T13:42:26.839Z,98916.95
2022-10-30T13:45:06.307Z,98916.11
2022-10-30T13:47:50.444Z,98918.34
2022-10-30T13:50:33.688Z,98916.14
2022-10-30T13:53:08.582Z,98912.57
2022-10-30T13:55:43.336Z,98909.81
2022-10-30T13:58:24.728Z,98908.94
2022-10-30T14:01:04.758Z,98904.20
2022-10-30T14:03:50.117Z,98900.58
2022-10-30T14:06:30.300Z,98899.24
2022-10-30T14:09:12.176Z,98897.66
2022-10-30T14:11:44.237Z,98894.96
2022-10-30T14:14:33.185Z,98895.91
2022-10-30T14:17:13.998Z,98896.20
2022-10-30T14:20:20.617Z,98898.35
2022-10-30T14:23:16.192Z,98895.61
2022-10-30T14:25:49.092Z,98900.23
2022-10-30T14:28:26.043Z,98909.64
2022-10-30T14:31:07.320Z,98907.64
2022-10-30T14:33:50.854Z,98911.96
2022-10-30T14:36:25.151Z,98908.95
2022-10-30T14:39:24.658Z,98908.34
2022-10-30T14:42:04.052Z,98907.20
2022-10-30T14:45:02.663Z,98906.43
2022-10-30T14:47:53.300Z,98903.84
2022-10-30T14:50:48.560Z,98909.21
2022-10-30T14:53:31.621Z,98907.48
2022-10-30T14:56:10.668Z,98906.60
2022-10-30T14:58:47.656Z,98903.33
2022-10-30T15:01:37.911Z,98903.56
2022-10-30T15:04:22.749Z,98901.75
2022-10-30T15:06:59.462Z,98898.60
2022-10-30T15:09:45.354Z,98894.45
2022-10-30T15:12:36.666Z,98890.02
2022-10-30T15:15:16.536Z,98895.80
2022-10-30T15:17:50.657Z,98897.80
2022-10-30T15:20:24.839Z,98903.45
2022-10-30T15:23:01.239Z,98903.96
2022-10-30T15:25:37.049Z,98898.53
2022-10-30T15:28:14.456Z,98899.33
2022-10-30T15:31:03.692Z,98901.96
2022-10-30T15:33:39.504Z,98902.59
2022-10-30T15:36:20.614Z,98903.69
2022-10-30T15:39:12.728Z,98901.89
2022-10-30T15:41:55.760Z,98902.72
2022-10-30T15:44:31.241Z,98903.20
2022-10-30T15:47:05.485Z,98906.77
2022-10-30T15:49:39.201Z,98905.49
2022-10-30T15:52:19.178Z,98906.92
2022-10-30T15:54:55.563Z,98910.96
2022-10-30T15:58:01.142Z,98912.08
2022-10-30T16:00:25.441Z,98913.64
2022-10-30T16:03:07.174Z,98912.97
2022-10-30T16:05:38.991Z,98918.41
2022-10-30T16:08:17.604Z,98924.87
2022-10-30T16:10:51.027Z,98924.11
2022-10-30T16:13:26.675Z,98920.50
2022-10-30T16:15:59.759Z,98916.73
2022-10-30T16:18:37.186Z,98917.87
2022-10-30T16:21:14.130Z,98920.63
2022-10-30T16:23:51.432Z,98922.80
2022-10-30T16:26:33.744Z,98920.90
2022-10-30T16:29:17.107Z,98916.12
2022-10-30T16:31:52.262Z,98917.86
2022-10-30T16:34:32.339Z,98921.12
2022-10-30T16:37:05.114Z,98918.29
2022-10-30T16:39:38.430Z,98917.80
2022-10-30T16:42:22.314Z,98918.66
2022-10-30T16:44:59.351Z,98919.02
2022-10-30T16:47:35.121Z,98919.34
2022-10-30T16:50:12.016Z,98915.61
2022-10-30T16:52:46.891Z,98912.97
2022-10-30T16:55:23.182Z,98914.11
2022-10-30T16:57:58.351Z,98913.38
2022-10-30T17:00:36.865Z,98912.60
2022-10-30T17:03:12.596Z,98912.52
2022-10-30T17:05:47.545Z,98912.45
2022-10-30T17:08:36.903Z,98913.16
2022-10-30T17:11:17.334Z,98912.13
2022-10-30T17:14:04.772Z,98914.95
2022-10-30T17:16:38.685Z,98914.16
2022-10-30T17:19:48.469Z,98916.09
2022-10-30T17:22:23.225Z,98919.28
2022-10-30T17:24:57.881Z,98916.50
2022-10-30T17:27:46.580Z,98913.77
2022-10-30T17:30:39.093Z,98913.84
2022-10-30T17:33:33.317Z,98913.66
2022-10-30T17:36:09.875Z,98915.24
2022-10-30T17:38:42.120Z,98916.05
2022-10-30T17:41:16.891Z,98919.40
2022-10-30T17:43:53.141Z,98917.81
2022-10-30T17:46:26.637Z,98916.56
2022-10-30T17:49:05.532Z,98920.06
2022-10-30T17:51:40.861Z,98922.38
2022-10-30T17:54:17.958Z,98915.84
2022-10-30T17:56:52.626Z,98913.55
2022-10-30T17:59:27.830Z,98913.33
2022-10-30T18:02:02.217Z,98910.94
2022-10-30T18:04:35.031Z,98908.70
2022-10-30T18:07:08.430Z,98910.61
2022-10-30T18:09:41.036Z,98912.23
2022-10-30T18:12:16.722Z,98916.19
2022-10-30T18:14:48.942Z,98917.23
2022-10-30T18:17:22.931Z,98911.49
2022-10-30T18:19:55.333Z,98913.23
2022-10-30T18:22:28.498Z,98911.55
2022-10-30T18:25:02.448Z,98915.54
2022-10-30T18:27:35.192Z,98913.66
2022-10-30T18:30:10.102Z,98916.57
2022-10-30T18:32:42.953Z,98916.23
2022-10-30T18:35:27.190Z,98916.81
2022-10-30T18:38:02.564Z,98915.85
2022-10-30T18:40:35.770Z,98916.67
2022-10-30T18:43:12.781Z,98920.08
2022-10-30T18:45:44.863Z,98920.02
2022-10-30T18:48:20.316Z,98922.38
2022-10-30T18:50:53.983Z,98923.52
2022-10-30T18:53:34.997Z,98926.61
2022-10-30T18:56:12.793Z,98922.99
2022-10-30T18:58:44.733Z,98922.04
2022-10-30T19:01:19.044Z,98927.48
2022-10-30T19:03:51.741Z,98926.34
2022-10-30T19:06:26.946Z,98930.16
2022-10-30T19:09:01.201Z,98934.36
2022-10-30T19:11:33.263Z,98937.46
2022-10-30T19:14:06.930Z,98941.06
2022-10-30T19:16:39.497Z,98942.88
2022-10-30T19:19:15.241Z,98941.36
2022-10-30T19:21:50.151Z,98939.61
2022-10-30T19:24:23.319Z,98938.08
2022-10-30T19:26:57.886Z,98942.05
2022-10-30T19:29:31.621Z,98947.23
2022-10-30T19:32:04.334Z,98948.69
2022-10-30T19:34:45.998Z,98954.48
2022-10-30T19:37:19.746Z,98955.89
2022-10-30T19:39:51.975Z,98955.67
2022-10-30T19:42:24.201Z,98956.34
2022-10-30T19:44:56.717Z,98954.03
2022-10-30T19:47:30.000Z,98953.21
2022-10-30T19:50:02.390Z,98954.54
2022-10-30T19:52:35.041Z,98956.74
2022-10-30T19:55:09.777Z,98959.09
2022-10-30T19:57:42.372Z,98957.88
2022-10-30T20:00:19.969Z,98957.95
2022-10-30T20:02:53.486Z,98958.19
2022-10-30T20:05:28.613Z,98960.87
2022-10-30T20:08:03.847Z,98963.06
2022-10-30T20:10:39.070Z,98963.60
2022-10-30T20:13:15.776Z,98965.21
2022-10-30T20:15:47.835Z,98966.02
2022-10-30T20:18:30.530Z,98966.05
2022-10-30T20:21:07.472Z,98969.02
2022-10-30T20:23:42.435Z,98965.90
2022-10-30T20:26:23.649Z,98963.52
2022-10-30T20:28:56.831Z,98964.08
2022-10-30T20:31:29.501Z,98967.58
2022-10-30T20:34:03.897Z,98967.74
2022-10-30T20:36:40.810Z,98963.32
2022-10-30T20:39:14.508Z,98960.88
2022-10-30T20:41:47.257Z,98962.88
2022-10-30T20:44:19.673Z,98959.16
2022-10-30T20:46:55.352Z,98955.47
2022-10-30T20:49:28.558Z,98953.54
2022-10-30T20:52:02.720Z,98955.50
2022-10-30T20:54:35.888Z,98947.95
2022-10-30T20:57:09.924Z,98951.35
2022-10-30T20:59:44.240Z,98952.96
2022-10-30T21:02:19.739Z,98958.97
2022-10-30T21:04:52.292Z,98957.94
2022-10-30T21:07:26.889Z,98958.48
2022-10-30T21:09:58.693Z,98953.95
2022-10-30T21:12:35.422Z,98951.33
2022-10-30T21:15:09.747Z,98950.14
2022-10-30T21:17:42.765Z,98948.56
2022-10-30T21:20:15.617Z,98950.68
2022-10-30T21:22:48.345Z,98949.96
2022-10-30T21:25:21.508Z,98952.65
2022-10-30T21:27:53.335Z,98954.84
2022-10-30T21:30:27.733Z,98958.41
2022-10-30T21:33:04.211Z,98955.81
2022-10-30T21:35:37.649Z,98956.00
2022-10-30T21:38:11.489Z,98956.73
2022-10-30T21:40:48.656Z,98955.67
2022-10-30T21:43:23.247Z,98960.11
2022-10-30T21:45:57.714Z,98957.13
2022-10-30T21:48:30.350Z,98958.38
2022-10-30T21:51:10.901Z,98960.15
2022-10-30T21:53:46.912Z,98960.33
2022-10-30T21:56:21.471Z,98954.84
2022-10-30T21:58:59.656Z,98954.34
2022-10-30T22:01:34.993Z,98952.76
2022-10-30T22:04:20.094Z,98957.55
2022-10-30T22:06:56.517Z,98957.23
2022-10-30T22:09:31.241Z,98957.24
2022-10-30T22:12:05.121Z,98956.55
2022-10-30T22:14:38.741Z,98954.27
2022-10-30T22:17:11.117Z,98951.64
2022-10-30T22:19:46.361Z,98948.82
2022-10-30T22:22:21.685Z,98948.82
2022-10-30T22:24:54.455Z,98948.66
2022-10-30T22:27:26.861Z,98945.86
2022-10-30T22:30:01.050Z,98950.96
2022-10-30T22:32:33.581Z,98949.95
2022-10-30T22:35:11.279Z,98951.73
2022-10-30T22:37:43.799Z,98947.69
2022-10-30T22:40:18.222Z,98951.77
2022-10-30T22:42:50.817Z,98948.07
2022-10-30T22:45:25.242Z,98949.48
2022-10-30T22:47:58.582Z,98948.52
2022-10-30T22:50:30.983Z,98951.56
2022-10-30T22:53:05.157Z,98948.83
2022-10-30T22:55:38.692Z,98948.98
2022-10-30T22:58:11.111Z,98949.42
2022-10-30T23:00:48.785Z,98946.27
2022-10-30T23:03:20.730Z,98949.50
2022-10-30T23:05:59.750Z,98953.45
2022-10-30T23:08:33.925Z,98953.46
2022-10-30T23:11:09.719Z,98953.65
2022-10-30T23:13:45.502Z,98956.55
2022-10-30T23:16:18.868Z,98960.89
2022-10-30T23:18:53.144Z,98959.84
2022-10-30T23:21:27.196Z,98960.37
2022-10-30T23:24:02.970Z,98958.78
2022-10-30T23:26:37.936Z,98961.75
2022-10-30T23:29:10.684Z,98962.97
2022-10-30T23:31:46.382Z,98964.56
2022-10-30T23:34:19.585Z,98967.76
2022-10-30T23:36:56.375Z,98966.38
2022-10-30T23:39:34.918Z,98968.48
2022-10-30T23:42:09.362Z,98967.80
2022-10-30T23:44:42.078Z,98969.95
2022-10-30T23:47:14.050Z,98972.62
2022-10-30T23:49:48.119Z,98964.03
2022-10-30T23:52:22.589Z,98971.61
2022-10-30T23:54:57.924Z,98972.34
2022-10-30T23:57:33.263Z,98971.27
